BAW252A MWCR-MYNN
Flight info
| Callsign | BAW252A |
|---|---|
| Flight time | 1h 2m |
| Altitude | 38000 |
| Route | ENAMO B503 HODGY DCT ZQA |
| Aircraft | B77W/H-SDE1E2E3FGHIJ2J3J4J5M1RWXY/LB1D1 |
Departure
| Time | 2026-05-04 09:34 |
|---|---|
| Airport | Owen Roberts International Airport (MWCR) |
Arrival
| Time | 2026-05-04 10:36 |
|---|---|
| Airport | Lynden Pindling International Airport (MYNN) |
| Time | Latitude | Longitude | Altitude | Speed | Heading |
|---|---|---|---|---|---|
| 2026-05-04 09:28 | 19.29482 | -81.35874 | 22 ft | 0 kts | 347° |
| 2026-05-04 09:29 | 19.29475 | -81.35872 | 21 ft | 0 kts | 347° |
| 2026-05-04 09:29 | 19.29462 | -81.35869 | 26 ft | 0 kts | 347° |
| 2026-05-04 09:29 | 19.29448 | -81.35866 | 27 ft | 0 kts | 347° |
| 2026-05-04 09:29 | 19.29436 | -81.35860 | 23 ft | 0 kts | 314° |
| 2026-05-04 09:30 | 19.29432 | -81.35846 | 25 ft | 0 kts | 257° |
| 2026-05-04 09:30 | 19.29433 | -81.35844 | 25 ft | 0 kts | 257° |
| 2026-05-04 09:31 | 19.29401 | -81.35925 | 22 ft | 16 kts | 251° |
| 2026-05-04 09:31 | 19.29369 | -81.36039 | 24 ft | 16 kts | 256° |
| 2026-05-04 09:31 | 19.29342 | -81.36154 | 23 ft | 16 kts | 256° |
| 2026-05-04 09:32 | 19.29303 | -81.36265 | 24 ft | 16 kts | 244° |
| 2026-05-04 09:32 | 19.29207 | -81.36302 | 25 ft | 13 kts | 172° |
| 2026-05-04 09:34 | 19.33895 | -81.29791 | 4126 ft | 264 kts | 36° |
| 2026-05-04 09:34 | 19.35405 | -81.28651 | 5189 ft | 269 kts | 37° |
| 2026-05-04 09:34 | 19.36921 | -81.27463 | 6247 ft | 272 kts | 38° |
| 2026-05-04 09:34 | 19.38438 | -81.26239 | 7239 ft | 276 kts | 39° |
| 2026-05-04 09:35 | 19.39966 | -81.24960 | 8146 ft | 283 kts | 39° |
| 2026-05-04 09:35 | 19.41517 | -81.23637 | 9107 ft | 289 kts | 39° |
| 2026-05-04 09:35 | 19.43087 | -81.22277 | 10046 ft | 295 kts | 39° |
| 2026-05-04 09:35 | 19.44703 | -81.20862 | 10703 ft | 311 kts | 39° |
| 2026-05-04 09:37 | 19.58611 | -81.08408 | 15285 ft | 401 kts | 39° |
| 2026-05-04 09:37 | 19.60743 | -81.06482 | 16142 ft | 404 kts | 39° |
| 2026-05-04 09:38 | 19.62895 | -81.04538 | 16953 ft | 408 kts | 39° |
| 2026-05-04 09:38 | 19.65071 | -81.02572 | 17747 ft | 413 kts | 39° |
| 2026-05-04 09:38 | 19.66527 | -81.01255 | 18267 ft | 417 kts | 38° |
| 2026-05-04 09:38 | 19.68745 | -80.99250 | 18940 ft | 421 kts | 38° |
| 2026-05-04 09:39 | 19.70991 | -80.97219 | 19614 ft | 426 kts | 38° |
| 2026-05-04 09:39 | 19.73255 | -80.95170 | 20282 ft | 430 kts | 38° |
| 2026-05-04 09:39 | 19.76293 | -80.92420 | 21178 ft | 436 kts | 38° |
| 2026-05-04 09:39 | 19.77858 | -80.91003 | 21613 ft | 439 kts | 38° |
| 2026-05-04 09:40 | 19.80963 | -80.88190 | 22484 ft | 445 kts | 38° |
| 2026-05-04 09:40 | 19.82560 | -80.86742 | 22915 ft | 449 kts | 37° |
| 2026-05-04 09:40 | 19.84915 | -80.84607 | 23539 ft | 453 kts | 37° |
| 2026-05-04 09:40 | 19.87330 | -80.82417 | 24040 ft | 458 kts | 37° |
| 2026-05-04 09:41 | 19.89771 | -80.80202 | 24543 ft | 462 kts | 37° |
| 2026-05-04 09:42 | 20.07476 | -80.64105 | 27931 ft | 494 kts | 37° |
| 2026-05-04 09:43 | 20.10066 | -80.61746 | 28394 ft | 498 kts | 38° |
| 2026-05-04 09:43 | 20.12709 | -80.59338 | 28844 ft | 502 kts | 38° |
| 2026-05-04 09:43 | 20.15378 | -80.56905 | 29278 ft | 506 kts | 38° |
| 2026-05-04 09:43 | 20.18068 | -80.54452 | 29693 ft | 511 kts | 38° |
| 2026-05-04 09:44 | 20.20776 | -80.51981 | 30091 ft | 515 kts | 38° |
| 2026-05-04 09:44 | 20.23507 | -80.49487 | 30443 ft | 518 kts | 38° |
| 2026-05-04 09:44 | 20.26243 | -80.46988 | 30869 ft | 518 kts | 38° |
| 2026-05-04 09:46 | 20.45202 | -80.29634 | 34264 ft | 511 kts | 37° |
| 2026-05-04 09:46 | 20.47908 | -80.27154 | 34609 ft | 512 kts | 37° |
| 2026-05-04 09:46 | 20.50613 | -80.24673 | 34931 ft | 513 kts | 37° |
| 2026-05-04 09:47 | 20.53326 | -80.22184 | 35261 ft | 514 kts | 37° |
| 2026-05-04 09:47 | 20.56042 | -80.19691 | 35604 ft | 515 kts | 37° |
| 2026-05-04 09:49 | 20.75083 | -80.02174 | 37702 ft | 520 kts | 37° |
| 2026-05-04 09:49 | 20.77826 | -79.99646 | 37901 ft | 522 kts | 37° |
| 2026-05-04 09:51 | 20.97050 | -79.81886 | 37992 ft | 518 kts | 37° |
| 2026-05-04 09:51 | 21.02509 | -79.76834 | 37985 ft | 518 kts | 37° |
| 2026-05-04 09:52 | 21.07966 | -79.71780 | 37990 ft | 519 kts | 37° |
| 2026-05-04 09:52 | 21.13448 | -79.66695 | 37990 ft | 521 kts | 37° |
| 2026-05-04 09:53 | 21.18940 | -79.61596 | 37990 ft | 523 kts | 37° |
| 2026-05-04 09:53 | 21.24450 | -79.56475 | 37991 ft | 524 kts | 37° |
| 2026-05-04 09:54 | 21.29935 | -79.51371 | 37986 ft | 526 kts | 37° |
| 2026-05-04 09:54 | 21.35473 | -79.46213 | 37993 ft | 527 kts | 37° |
| 2026-05-04 09:55 | 21.41012 | -79.41048 | 37989 ft | 527 kts | 37° |
| 2026-05-04 09:55 | 21.46556 | -79.35873 | 37991 ft | 527 kts | 37° |
| 2026-05-04 09:56 | 21.52057 | -79.30734 | 37990 ft | 527 kts | 37° |
| 2026-05-04 09:56 | 21.57588 | -79.25560 | 37989 ft | 527 kts | 37° |
| 2026-05-04 09:57 | 21.63127 | -79.20375 | 37992 ft | 527 kts | 37° |
| 2026-05-04 09:57 | 21.68623 | -79.15224 | 37998 ft | 527 kts | 37° |
| 2026-05-04 09:58 | 21.74147 | -79.10041 | 37999 ft | 527 kts | 37° |
| 2026-05-04 09:58 | 21.79674 | -79.04850 | 37995 ft | 527 kts | 37° |
| 2026-05-04 10:00 | 22.01791 | -78.84021 | 37992 ft | 528 kts | 36° |
| 2026-05-04 10:04 | 22.40448 | -78.47398 | 37995 ft | 529 kts | 36° |
| 2026-05-04 10:04 | 22.45976 | -78.42138 | 37998 ft | 528 kts | 36° |
| 2026-05-04 10:05 | 22.51476 | -78.36898 | 37997 ft | 528 kts | 36° |
| 2026-05-04 10:05 | 22.57001 | -78.31630 | 37994 ft | 528 kts | 36° |
| 2026-05-04 10:06 | 22.62515 | -78.26365 | 37996 ft | 527 kts | 36° |
| 2026-05-04 10:06 | 22.67990 | -78.21133 | 38001 ft | 527 kts | 36° |
| 2026-05-04 10:08 | 22.87225 | -78.02703 | 37995 ft | 526 kts | 36° |
| 2026-05-04 10:08 | 22.92665 | -77.97477 | 37997 ft | 526 kts | 36° |
| 2026-05-04 10:09 | 22.98145 | -77.92208 | 37717 ft | 529 kts | 36° |
| 2026-05-04 10:09 | 23.00907 | -77.89551 | 37264 ft | 528 kts | 37° |
| 2026-05-04 10:09 | 23.03645 | -77.86911 | 36836 ft | 522 kts | 37° |
| 2026-05-04 10:10 | 23.06352 | -77.84299 | 36411 ft | 517 kts | 37° |
| 2026-05-04 10:10 | 23.09021 | -77.81722 | 35999 ft | 511 kts | 37° |
| 2026-05-04 10:10 | 23.11637 | -77.79197 | 35592 ft | 507 kts | 37° |
| 2026-05-04 10:10 | 23.14299 | -77.76628 | 35139 ft | 503 kts | 37° |
| 2026-05-04 10:11 | 23.16908 | -77.74110 | 34701 ft | 500 kts | 37° |
| 2026-05-04 10:11 | 23.19465 | -77.71640 | 34259 ft | 497 kts | 37° |
| 2026-05-04 10:11 | 23.22041 | -77.69151 | 33792 ft | 494 kts | 37° |
| 2026-05-04 10:11 | 23.24603 | -77.66673 | 33316 ft | 490 kts | 37° |
| 2026-05-04 10:12 | 23.27144 | -77.64214 | 32873 ft | 487 kts | 37° |
| 2026-05-04 10:12 | 23.29665 | -77.61772 | 32441 ft | 483 kts | 37° |
| 2026-05-04 10:12 | 23.32163 | -77.59352 | 32014 ft | 479 kts | 37° |
| 2026-05-04 10:12 | 23.34645 | -77.56946 | 31580 ft | 475 kts | 37° |
| 2026-05-04 10:13 | 23.37108 | -77.54558 | 31164 ft | 472 kts | 37° |
| 2026-05-04 10:13 | 23.39518 | -77.52220 | 30754 ft | 469 kts | 37° |
| 2026-05-04 10:13 | 23.41944 | -77.49865 | 30323 ft | 466 kts | 37° |
| 2026-05-04 10:13 | 23.44361 | -77.47518 | 29864 ft | 463 kts | 37° |
| 2026-05-04 10:14 | 23.46750 | -77.45195 | 29521 ft | 458 kts | 37° |
| 2026-05-04 10:14 | 23.49120 | -77.42890 | 29082 ft | 454 kts | 37° |
| 2026-05-04 10:16 | 23.67597 | -77.36627 | 26149 ft | 393 kts | 350° |
| 2026-05-04 10:16 | 23.70318 | -77.36821 | 25740 ft | 391 kts | 350° |
| 2026-05-04 10:16 | 23.73036 | -77.37005 | 25325 ft | 390 kts | 350° |
| 2026-05-04 10:16 | 23.75746 | -77.37181 | 24904 ft | 390 kts | 351° |
| 2026-05-04 10:17 | 23.78454 | -77.37351 | 24473 ft | 389 kts | 351° |
| 2026-05-04 10:17 | 23.81160 | -77.37518 | 24064 ft | 389 kts | 351° |
| 2026-05-04 10:19 | 23.99864 | -77.38660 | 21058 ft | 379 kts | 351° |
| 2026-05-04 10:19 | 24.02509 | -77.38822 | 20646 ft | 378 kts | 352° |
| 2026-05-04 10:19 | 24.05134 | -77.38983 | 20239 ft | 377 kts | 352° |
| 2026-05-04 10:19 | 24.07720 | -77.39121 | 19837 ft | 377 kts | 352° |
| 2026-05-04 10:20 | 24.10338 | -77.39238 | 19413 ft | 376 kts | 353° |
| 2026-05-04 10:20 | 24.12956 | -77.39356 | 18994 ft | 376 kts | 353° |
| 2026-05-04 10:20 | 24.15569 | -77.39496 | 18577 ft | 375 kts | 351° |
| 2026-05-04 10:20 | 24.18139 | -77.39900 | 18117 ft | 371 kts | 344° |
| 2026-05-04 10:21 | 24.20662 | -77.40473 | 17668 ft | 370 kts | 343° |
| 2026-05-04 10:21 | 24.23174 | -77.41055 | 17233 ft | 368 kts | 343° |
| 2026-05-04 10:21 | 24.25677 | -77.41636 | 16809 ft | 367 kts | 343° |
| 2026-05-04 10:21 | 24.28174 | -77.42211 | 16390 ft | 366 kts | 344° |
| 2026-05-04 10:22 | 24.33146 | -77.43349 | 15574 ft | 364 kts | 344° |
| 2026-05-04 10:22 | 24.35596 | -77.43907 | 15169 ft | 363 kts | 344° |
| 2026-05-04 10:22 | 24.38064 | -77.44468 | 14755 ft | 362 kts | 344° |
| 2026-05-04 10:23 | 24.40533 | -77.45028 | 14346 ft | 362 kts | 344° |
| 2026-05-04 10:23 | 24.43005 | -77.45590 | 13920 ft | 362 kts | 344° |
| 2026-05-04 10:25 | 24.59387 | -77.49302 | 10970 ft | 313 kts | 344° |
| 2026-05-04 10:25 | 24.61522 | -77.49791 | 10626 ft | 312 kts | 344° |
| 2026-05-04 10:25 | 24.63642 | -77.50275 | 10354 ft | 308 kts | 344° |
| 2026-05-04 10:25 | 24.65714 | -77.50747 | 10225 ft | 300 kts | 344° |
| 2026-05-04 10:26 | 24.67733 | -77.51206 | 10087 ft | 292 kts | 344° |
| 2026-05-04 10:26 | 24.69697 | -77.51653 | 9856 ft | 287 kts | 344° |
| 2026-05-04 10:26 | 24.71652 | -77.52100 | 9524 ft | 286 kts | 344° |
| 2026-05-04 10:26 | 24.73580 | -77.52542 | 9201 ft | 285 kts | 344° |
| 2026-05-04 10:27 | 24.75524 | -77.52986 | 8879 ft | 285 kts | 344° |
| 2026-05-04 10:27 | 24.77461 | -77.53430 | 8554 ft | 284 kts | 345° |
| 2026-05-04 10:27 | 24.79401 | -77.53873 | 8227 ft | 284 kts | 345° |
| 2026-05-04 10:27 | 24.81337 | -77.54316 | 7910 ft | 284 kts | 345° |
| 2026-05-04 10:28 | 24.83267 | -77.54757 | 7586 ft | 283 kts | 345° |
| 2026-05-04 10:28 | 24.84548 | -77.55049 | 7378 ft | 283 kts | 345° |
| 2026-05-04 10:28 | 24.86477 | -77.55490 | 7068 ft | 283 kts | 345° |
| 2026-05-04 10:28 | 24.88409 | -77.55932 | 6745 ft | 283 kts | 345° |
| 2026-05-04 10:29 | 24.90339 | -77.56373 | 6416 ft | 283 kts | 346° |
| 2026-05-04 10:29 | 24.92264 | -77.56814 | 6079 ft | 283 kts | 346° |
| 2026-05-04 10:29 | 24.94193 | -77.57255 | 5742 ft | 282 kts | 346° |
| 2026-05-04 10:29 | 24.96089 | -77.57689 | 5417 ft | 282 kts | 346° |
| 2026-05-04 10:30 | 24.98008 | -77.58128 | 5089 ft | 281 kts | 346° |
| 2026-05-04 10:30 | 24.99921 | -77.58566 | 4776 ft | 280 kts | 346° |
| 2026-05-04 10:30 | 25.01823 | -77.59003 | 4498 ft | 280 kts | 346° |
| 2026-05-04 10:30 | 25.03737 | -77.59441 | 4218 ft | 282 kts | 346° |
| 2026-05-04 10:31 | 25.05665 | -77.59884 | 3966 ft | 283 kts | 346° |
| 2026-05-04 10:31 | 25.07584 | -77.60322 | 3884 ft | 279 kts | 346° |
| 2026-05-04 10:32 | 25.14521 | -77.56155 | 2904 ft | 212 kts | 128° |
| 2026-05-04 10:33 | 25.13436 | -77.55195 | 2423 ft | 195 kts | 162° |
| 2026-05-04 10:33 | 25.12196 | -77.54653 | 2014 ft | 190 kts | 157° |
| 2026-05-04 10:33 | 25.11070 | -77.53861 | 1595 ft | 196 kts | 145° |
| 2026-05-04 10:33 | 25.10054 | -77.52937 | 1372 ft | 182 kts | 142° |
| 2026-05-04 10:34 | 25.09165 | -77.52006 | 1116 ft | 169 kts | 138° |
| 2026-05-04 10:34 | 25.08376 | -77.51123 | 927 ft | 153 kts | 138° |
| 2026-05-04 10:34 | 25.07653 | -77.50318 | 748 ft | 148 kts | 137° |
| 2026-05-04 10:34 | 25.06921 | -77.49506 | 529 ft | 150 kts | 135° |
| 2026-05-04 10:35 | 25.06201 | -77.48692 | 368 ft | 148 kts | 135° |
| 2026-05-04 10:35 | 25.05460 | -77.47870 | 139 ft | 152 kts | 135° |
| 2026-05-04 10:35 | 25.04737 | -77.47065 | 30 ft | 139 kts | 136° |
| 2026-05-04 10:35 | 25.04279 | -77.46558 | 27 ft | 53 kts | 135° |
| 2026-05-04 10:36 | 25.04128 | -77.46318 | 26 ft | 30 kts | 112° |
| 2026-05-04 10:36 | 25.04167 | -77.46202 | 25 ft | 16 kts | 343° |
| 2026-05-04 10:36 | 25.04254 | -77.46279 | 24 ft | 16 kts | 314° |
| 2026-05-04 10:36 | 25.04332 | -77.46369 | 25 ft | 16 kts | 314° |
| 2026-05-04 10:37 | 25.04427 | -77.46473 | 26 ft | 21 kts | 315° |
| 2026-05-04 10:37 | 25.04534 | -77.46593 | 26 ft | 23 kts | 315° |
| 2026-05-04 10:37 | 25.04631 | -77.46699 | 25 ft | 17 kts | 315° |
| 2026-05-04 10:37 | 25.04733 | -77.46710 | 23 ft | 14 kts | 18° |